Terminal Aerodrome Forecast
Issued by NWS

Home | Current Version | Previous Version | Graphics & Text | Print | Product List | Glossary On
Versions: 1 2 3 4 5 6 7 8 9 10 11 12 13 14 15 16 17 18 19 20 21 22 23
000
FTUS43 KGRB 100520
TAFAUW
TAF
KAUW 100520Z 1006/1106 24005KT P6SM -SHSN SCT035 OVC070
      TEMPO 1006/1008 2SM -SHSN BKN030
     FM101100 28003KT P6SM -SHSN BKN022
     FM101500 32006KT P6SM BKN040
     FM110000 30003KT P6SM BKN150=

USA.gov is the U.S. government's official web portal to all federal, state and local government web resources and services.